createdAt,value
2019-03-20T00:00:07.175Z,101.43
2019-03-20T00:02:36.450Z,226.93
2019-03-20T00:05:06.347Z,77.93
2019-03-20T00:07:35.573Z,49.67
2019-03-20T00:10:05.429Z,52.43
2019-03-20T00:12:34.648Z,43.50
2019-03-20T00:15:04.670Z,45.67
2019-03-20T00:17:33.995Z,51.00
2019-03-20T00:20:03.323Z,50.53
2019-03-20T00:22:32.659Z,59.93
2019-03-20T00:25:02.371Z,50.70
2019-03-20T00:27:31.596Z,64.40
2019-03-20T00:30:01.429Z,62.23
2019-03-20T00:32:30.729Z,50.23
2019-03-20T00:35:01.151Z,51.47
2019-03-20T00:37:30.797Z,68.00
2019-03-20T00:40:00.076Z,65.20
2019-03-20T00:42:29.321Z,118.80
2019-03-20T00:44:58.559Z,115.57
2019-03-20T00:47:27.876Z,58.67
2019-03-20T00:49:58.142Z,67.20
2019-03-20T00:52:27.641Z,75.07
2019-03-20T00:54:56.986Z,80.57
2019-03-20T00:57:26.219Z,72.23
2019-03-20T00:59:55.540Z,56.97
2019-03-20T01:02:25.213Z,51.13
2019-03-20T01:04:54.555Z,79.90
2019-03-20T01:07:24.224Z,51.20
2019-03-20T01:09:53.526Z,50.90
2019-03-20T01:12:22.879Z,50.10
2019-03-20T01:14:52.113Z,43.23
2019-03-20T01:17:21.421Z,41.57
2019-03-20T01:19:51.335Z,41.43
2019-03-20T01:22:20.579Z,72.63
2019-03-20T01:24:49.873Z,93.10
2019-03-20T01:27:19.137Z,79.00
2019-03-20T01:29:48.379Z,81.37
2019-03-20T01:32:17.696Z,73.07
2019-03-20T01:34:47.049Z,78.40
2019-03-20T01:37:16.290Z,99.17
2019-03-20T01:39:45.538Z,95.87
2019-03-20T01:42:14.916Z,88.33
2019-03-20T01:44:44.155Z,73.40
2019-03-20T01:47:13.458Z,82.80
2019-03-20T01:49:42.821Z,116.63
2019-03-20T01:52:12.368Z,175.27
2019-03-20T01:54:41.752Z,91.40
2019-03-20T01:57:11.106Z,88.03
2019-03-20T01:59:40.843Z,63.33
2019-03-20T02:02:10.074Z,56.40
2019-03-20T02:04:39.439Z,59.20
2019-03-20T02:07:08.750Z,50.83
2019-03-20T02:09:38.301Z,51.17
2019-03-20T02:12:07.582Z,55.03
2019-03-20T02:14:36.903Z,52.33
2019-03-20T02:17:06.130Z,55.23
2019-03-20T02:19:35.362Z,47.63
2019-03-20T02:22:04.589Z,53.97
2019-03-20T02:24:33.847Z,53.37
2019-03-20T02:27:03.167Z,66.17
2019-03-20T02:29:33.423Z,56.10
2019-03-20T02:32:02.694Z,53.30
2019-03-20T02:34:32.012Z,46.40
2019-03-20T02:37:01.322Z,49.13
2019-03-20T02:39:31.052Z,49.23
2019-03-20T02:42:00.364Z,49.13
2019-03-20T02:44:29.608Z,62.33
2019-03-20T02:46:58.905Z,51.30
2019-03-20T02:49:28.220Z,52.37
2019-03-20T02:51:57.540Z,56.27
2019-03-20T02:54:26.836Z,51.50
2019-03-20T02:56:56.128Z,77.13
2019-03-20T02:59:25.469Z,117.33
2019-03-20T03:01:54.753Z,87.33
2019-03-20T03:04:24.009Z,83.03
2019-03-20T03:06:53.934Z,81.30
2019-03-20T03:09:23.195Z,72.23
2019-03-20T03:11:52.491Z,55.60
2019-03-20T03:14:21.812Z,57.57
2019-03-20T03:16:51.086Z,71.57
2019-03-20T03:19:20.401Z,51.63
2019-03-20T03:21:49.725Z,48.83
2019-03-20T03:24:19.037Z,77.30
2019-03-20T03:26:48.355Z,72.53
2019-03-20T03:29:17.683Z,84.50
2019-03-20T03:31:47.481Z,95.23
2019-03-20T03:34:16.791Z,83.27
2019-03-20T03:36:46.023Z,90.40
2019-03-20T03:39:15.246Z,93.83
2019-03-20T03:41:44.927Z,101.53
2019-03-20T03:44:14.250Z,90.43
2019-03-20T03:46:43.481Z,82.27
2019-03-20T03:49:12.753Z,95.73
2019-03-20T03:51:41.995Z,85.40
2019-03-20T03:54:11.308Z,107.37
2019-03-20T03:56:40.556Z,101.40
2019-03-20T03:59:12.333Z,88.40
2019-03-20T04:01:41.592Z,60.53
2019-03-20T04:04:10.914Z,55.83
2019-03-20T04:06:40.169Z,66.23
2019-03-20T04:09:09.444Z,77.43
2019-03-20T04:11:38.768Z,112.80
2019-03-20T04:14:07.997Z,104.20
2019-03-20T04:16:37.315Z,90.93
2019-03-20T04:19:07.368Z,78.43
2019-03-20T04:21:37.014Z,92.20
2019-03-20T04:24:06.256Z,95.43
2019-03-20T04:26:35.966Z,75.73
2019-03-20T04:29:05.241Z,81.90
2019-03-20T04:31:34.558Z,84.13
2019-03-20T04:34:03.910Z,59.20
2019-03-20T04:36:33.218Z,77.17
2019-03-20T04:39:02.539Z,89.17
2019-03-20T04:41:31.804Z,84.00
2019-03-20T04:44:01.068Z,78.13
2019-03-20T04:46:30.419Z,70.53
2019-03-20T04:48:59.749Z,72.17
2019-03-20T04:51:29.063Z,54.90
2019-03-20T04:53:58.384Z,60.00
2019-03-20T04:56:27.715Z,60.57
2019-03-20T04:58:56.957Z,66.97
2019-03-20T05:01:26.202Z,73.07
2019-03-20T05:03:55.578Z,80.23
2019-03-20T05:06:24.819Z,80.50
2019-03-20T05:08:54.862Z,82.43
2019-03-20T05:11:24.389Z,82.13
2019-03-20T05:13:53.691Z,98.10
2019-03-20T05:16:22.935Z,72.37
2019-03-20T05:18:52.184Z,100.20
2019-03-20T05:21:21.405Z,149.57
2019-03-20T05:23:50.602Z,89.97
2019-03-20T05:26:19.831Z,67.23
2019-03-20T05:28:49.155Z,53.57
2019-03-20T05:31:18.457Z,235.53
2019-03-20T05:33:47.786Z,130.17
2019-03-20T05:36:17.108Z,96.13
2019-03-20T05:38:46.370Z,157.43
2019-03-20T05:41:16.219Z,65.90
2019-03-20T05:43:45.450Z,72.93
2019-03-20T05:46:15.240Z,68.20
2019-03-20T05:48:44.475Z,66.70
2019-03-20T05:51:13.726Z,323.17
2019-03-20T05:53:43.051Z,96.70
2019-03-20T05:56:12.362Z,92.03
2019-03-20T05:58:41.650Z,59.40
2019-03-20T06:01:10.959Z,59.60
2019-03-20T06:03:40.439Z,65.00
2019-03-20T06:06:09.829Z,65.17
2019-03-20T06:08:39.610Z,65.40
2019-03-20T06:11:08.895Z,71.87
2019-03-20T06:13:38.266Z,51.40
2019-03-20T06:16:07.585Z,51.87
2019-03-20T06:18:36.817Z,47.13
2019-03-20T06:21:06.159Z,53.17
2019-03-20T06:23:35.480Z,57.67
2019-03-20T06:26:04.796Z,46.50
2019-03-20T06:28:34.030Z,52.47
2019-03-20T06:31:03.779Z,52.00
2019-03-20T06:33:33.896Z,56.87
2019-03-20T06:36:03.121Z,51.13
2019-03-20T06:38:32.362Z,51.13
2019-03-20T06:41:01.710Z,61.33
2019-03-20T06:43:31.423Z,63.17
2019-03-20T06:46:00.816Z,73.23
2019-03-20T06:48:30.174Z,76.60
2019-03-20T06:50:59.498Z,119.97
2019-03-20T06:53:28.783Z,58.23
2019-03-20T06:55:58.048Z,57.10
2019-03-20T06:58:27.279Z,82.03
2019-03-20T07:01:07.547Z,66.87
2019-03-20T07:04:03.631Z,62.07
2019-03-20T07:07:21.562Z,39.07
2019-03-20T07:10:10.986Z,29.33
2019-03-20T07:12:40.236Z,36.70
2019-03-20T07:15:09.593Z,39.10
2019-03-20T07:17:38.891Z,35.10
2019-03-20T07:20:08.686Z,32.37
2019-03-20T07:22:37.981Z,37.70
2019-03-20T07:25:07.863Z,30.97
2019-03-20T07:27:37.069Z,28.67
2019-03-20T07:30:07.109Z,25.00
2019-03-20T07:32:36.635Z,18.33
2019-03-20T07:35:06.029Z,18.87
2019-03-20T07:37:35.425Z,33.13
2019-03-20T07:40:06.176Z,23.43
2019-03-20T07:42:35.438Z,31.57
2019-03-20T07:45:06.035Z,32.20
2019-03-20T07:47:35.383Z,24.47
2019-03-20T07:50:05.598Z,19.23
2019-03-20T07:52:35.198Z,29.53
2019-03-20T07:55:04.688Z,19.63
2019-03-20T07:57:34.062Z,29.83
2019-03-20T08:00:03.413Z,26.90
2019-03-20T08:02:32.752Z,24.43
2019-03-20T08:05:02.081Z,17.40
2019-03-20T08:07:32.174Z,25.90
2019-03-20T08:10:01.592Z,20.90
2019-03-20T08:12:31.013Z,16.57
2019-03-20T08:15:00.358Z,15.83
2019-03-20T08:17:29.655Z,17.57
2019-03-20T08:19:58.919Z,49.23
2019-03-20T08:22:28.276Z,18.63
2019-03-20T08:24:57.522Z,21.70
2019-03-20T08:27:26.836Z,15.97
2019-03-20T08:29:57.063Z,21.83
2019-03-20T08:32:26.303Z,19.43
2019-03-20T08:34:55.544Z,16.43
2019-03-20T08:37:24.799Z,16.30
2019-03-20T08:39:54.399Z,15.57
2019-03-20T08:42:23.647Z,18.00
2019-03-20T08:44:52.967Z,17.60
2019-03-20T08:47:22.399Z,28.67
2019-03-20T08:49:51.655Z,48.13
2019-03-20T08:52:20.953Z,21.17
2019-03-20T08:54:50.282Z,14.73
2019-03-20T08:57:19.615Z,14.60
2019-03-20T08:59:48.838Z,13.47
2019-03-20T09:02:18.149Z,15.73
2019-03-20T09:04:47.489Z,17.87
2019-03-20T09:07:16.724Z,10.63
2019-03-20T09:09:45.966Z,15.63
2019-03-20T09:12:15.197Z,11.17
2019-03-20T09:14:45.354Z,17.47
2019-03-20T09:17:14.664Z,16.73
2019-03-20T09:19:44.013Z,12.13
2019-03-20T09:22:13.307Z,10.73
2019-03-20T09:24:42.900Z,10.53
2019-03-20T09:27:12.275Z,35.20
2019-03-20T09:29:41.496Z,11.33
2019-03-20T09:32:11.181Z,10.33
2019-03-20T09:34:41.068Z,16.50
2019-03-20T09:37:10.247Z,11.60
2019-03-20T09:39:39.470Z,8.27
2019-03-20T09:42:08.749Z,12.10
2019-03-20T09:44:37.986Z,10.27
2019-03-20T09:47:07.324Z,40.93
2019-03-20T09:49:36.671Z,9.10
2019-03-20T09:52:06.523Z,13.70
2019-03-20T09:54:35.757Z,32.33
2019-03-20T09:57:05.187Z,9.97
2019-03-20T09:59:34.429Z,10.73
2019-03-20T10:02:03.662Z,9.17
2019-03-20T10:04:33.001Z,12.27
2019-03-20T10:07:02.255Z,9.70
2019-03-20T10:09:31.564Z,10.33
2019-03-20T10:12:00.835Z,9.97
2019-03-20T10:14:30.064Z,9.30
2019-03-20T10:16:59.303Z,6.87
2019-03-20T10:19:28.653Z,10.53
2019-03-20T10:21:57.942Z,8.43
2019-03-20T10:24:27.204Z,9.00
2019-03-20T10:26:56.555Z,10.37
2019-03-20T10:29:25.854Z,9.43
2019-03-20T10:31:55.086Z,10.40
2019-03-20T10:34:24.440Z,9.80
2019-03-20T10:36:53.761Z,9.27
2019-03-20T10:39:23.078Z,13.30
2019-03-20T10:41:52.402Z,29.30
2019-03-20T10:44:21.754Z,20.63
2019-03-20T10:46:51.064Z,9.90
2019-03-20T10:49:20.792Z,10.77
2019-03-20T10:51:50.103Z,7.90
2019-03-20T10:54:19.760Z,16.73
2019-03-20T10:56:49.011Z,13.03
2019-03-20T10:59:18.321Z,9.27
2019-03-20T11:01:47.913Z,10.23
2019-03-20T11:04:17.148Z,7.20
2019-03-20T11:06:46.472Z,7.53
2019-03-20T11:09:18.436Z,11.03
2019-03-20T11:11:46.704Z,7.77
2019-03-20T11:14:16.282Z,15.03
2019-03-20T11:16:45.636Z,13.53
2019-03-20T11:19:14.971Z,22.20
2019-03-20T11:21:44.268Z,20.43
2019-03-20T11:24:15.296Z,15.10
2019-03-20T11:26:44.614Z,10.83
2019-03-20T11:29:13.928Z,9.27
2019-03-20T11:31:43.312Z,8.73
2019-03-20T11:34:12.632Z,16.43
2019-03-20T11:36:41.866Z,17.93
2019-03-20T11:39:11.296Z,10.67
2019-03-20T11:41:40.547Z,6.90
2019-03-20T11:44:09.863Z,9.50
2019-03-20T11:46:39.100Z,9.57
2019-03-20T11:49:10.175Z,12.17
2019-03-20T11:51:39.406Z,8.33
2019-03-20T11:54:08.731Z,11.20
2019-03-20T11:56:37.962Z,8.73
2019-03-20T11:59:07.287Z,10.37
2019-03-20T12:01:36.562Z,28.00
2019-03-20T12:04:05.926Z,29.97
2019-03-20T12:06:35.237Z,30.70
2019-03-20T12:09:07.758Z,13.47
2019-03-20T12:11:45.493Z,9.17
2019-03-20T12:14:07.878Z,7.17
2019-03-20T12:16:37.141Z,13.50
2019-03-20T12:19:06.362Z,9.80
2019-03-20T12:21:35.598Z,11.53
2019-03-20T12:24:04.897Z,19.47
2019-03-20T12:26:34.208Z,21.27
2019-03-20T12:29:03.559Z,12.80
2019-03-20T12:31:33.135Z,14.20
2019-03-20T12:34:02.409Z,10.70
2019-03-20T12:36:31.703Z,8.27
2019-03-20T12:39:01.015Z,10.47
2019-03-20T12:41:30.268Z,8.93
2019-03-20T12:43:59.530Z,8.67
2019-03-20T12:46:40.918Z,10.83
2019-03-20T12:49:00.126Z,24.80
2019-03-20T12:51:29.478Z,15.13
2019-03-20T12:53:58.702Z,14.23
2019-03-20T12:56:28.026Z,8.57
2019-03-20T12:58:57.270Z,12.03
2019-03-20T13:01:26.672Z,8.07
2019-03-20T13:03:55.910Z,11.93
2019-03-20T13:06:25.150Z,8.77
2019-03-20T13:08:54.396Z,10.00
2019-03-20T13:11:23.754Z,10.37
2019-03-20T13:13:53.013Z,7.97
2019-03-20T13:16:22.751Z,9.17
2019-03-20T13:18:52.348Z,7.40
2019-03-20T13:21:21.652Z,5.83
2019-03-20T13:23:51.085Z,9.50
2019-03-20T13:26:20.449Z,9.53
2019-03-20T13:28:49.828Z,9.33
2019-03-20T13:31:20.865Z,16.20
2019-03-20T13:33:50.169Z,14.13
2019-03-20T13:36:19.474Z,11.37
2019-03-20T13:38:48.732Z,8.70
2019-03-20T13:41:18.094Z,14.73
2019-03-20T13:43:47.425Z,9.97
2019-03-20T13:46:16.662Z,12.77
2019-03-20T13:48:46.046Z,15.17
2019-03-20T13:51:15.303Z,20.93
2019-03-20T13:53:44.646Z,17.10
2019-03-20T13:56:14.010Z,14.43
2019-03-20T13:58:43.310Z,18.73
2019-03-20T14:01:12.635Z,14.90
2019-03-20T14:03:41.984Z,17.40
2019-03-20T14:06:11.309Z,20.30
2019-03-20T14:08:40.599Z,53.07
2019-03-20T14:11:10.031Z,9.53
2019-03-20T14:13:39.254Z,26.20
2019-03-20T14:16:08.560Z,21.87
2019-03-20T14:18:37.941Z,15.43
2019-03-20T14:21:07.265Z,12.80
2019-03-20T14:23:36.579Z,15.20
2019-03-20T14:26:05.854Z,31.70
2019-03-20T14:28:35.115Z,13.03
2019-03-20T14:31:04.643Z,25.30
2019-03-20T14:33:33.997Z,13.57
2019-03-20T14:36:03.443Z,23.13
2019-03-20T14:38:32.696Z,22.37
2019-03-20T14:41:01.991Z,32.60
2019-03-20T14:43:31.327Z,68.10
2019-03-20T14:46:01.413Z,31.57
2019-03-20T14:48:30.674Z,20.87
2019-03-20T14:50:59.991Z,16.27
2019-03-20T14:53:29.408Z,16.13
2019-03-20T14:55:58.658Z,16.40
2019-03-20T14:58:27.985Z,12.83
2019-03-20T15:00:57.251Z,15.13
2019-03-20T15:03:26.594Z,15.97
2019-03-20T15:05:55.959Z,16.47
2019-03-20T15:08:25.767Z,10.93
2019-03-20T15:10:57.013Z,18.07
2019-03-20T15:13:26.271Z,14.43
2019-03-20T15:16:05.866Z,20.20
2019-03-20T15:18:35.261Z,17.97
2019-03-20T15:21:04.589Z,17.37
2019-03-20T15:23:33.929Z,30.27
2019-03-20T15:26:03.308Z,33.13
2019-03-20T15:28:33.239Z,29.17
2019-03-20T15:31:02.486Z,35.73
2019-03-20T15:33:31.915Z,43.20
2019-03-20T15:36:01.247Z,47.50
2019-03-20T15:38:30.582Z,21.47
2019-03-20T15:40:59.905Z,41.13
2019-03-20T15:43:29.242Z,33.80
2019-03-20T15:45:58.603Z,31.57
2019-03-20T15:48:28.666Z,37.93
2019-03-20T15:50:57.928Z,39.63
2019-03-20T15:53:27.202Z,33.73
2019-03-20T15:55:56.450Z,26.33
2019-03-20T15:58:25.804Z,18.70
2019-03-20T16:00:55.051Z,28.93
2019-03-20T16:03:24.496Z,52.17
2019-03-20T16:05:53.861Z,92.80
2019-03-20T16:08:23.452Z,119.57
2019-03-20T16:10:52.716Z,168.50
2019-03-20T16:13:21.981Z,196.20
2019-03-20T16:15:51.293Z,109.20
2019-03-20T16:18:20.647Z,69.20
2019-03-20T16:20:49.982Z,46.10
2019-03-20T16:23:19.295Z,76.67
2019-03-20T16:25:48.742Z,58.47
2019-03-20T16:28:18.007Z,95.73
2019-03-20T16:30:47.369Z,50.20
2019-03-20T16:33:16.611Z,52.27
2019-03-20T16:35:45.853Z,65.50
2019-03-20T16:38:15.207Z,87.40
2019-03-20T16:40:44.578Z,93.80
2019-03-20T16:43:13.909Z,129.53
2019-03-20T16:45:43.347Z,153.60
2019-03-20T16:48:12.594Z,103.10
2019-03-20T16:50:41.810Z,72.27
2019-03-20T16:53:11.674Z,102.13
2019-03-20T16:55:41.046Z,80.97
2019-03-20T16:58:10.364Z,61.93
2019-03-20T17:00:39.689Z,151.73
2019-03-20T17:03:09.009Z,120.77
2019-03-20T17:05:38.357Z,248.00
2019-03-20T17:08:07.628Z,181.93
2019-03-20T17:10:38.425Z,100.27
2019-03-20T17:13:07.768Z,83.90
2019-03-20T17:15:37.210Z,169.90
2019-03-20T17:18:06.757Z,253.10
2019-03-20T17:20:36.119Z,258.17
2019-03-20T17:23:07.677Z,112.27
2019-03-20T17:25:37.381Z,151.53
2019-03-20T17:28:06.826Z,379.77
2019-03-20T17:30:37.532Z,239.97
2019-03-20T17:33:07.049Z,319.27
2019-03-20T17:35:36.328Z,224.60
2019-03-20T17:38:05.721Z,181.47
2019-03-20T17:40:34.954Z,198.30
2019-03-20T17:43:05.727Z,140.60
2019-03-20T17:45:36.064Z,148.90
2019-03-20T17:48:05.679Z,137.20
2019-03-20T17:50:35.029Z,180.33
2019-03-20T17:53:04.694Z,126.53
2019-03-20T17:55:34.514Z,117.70
2019-03-20T17:58:03.983Z,134.77
2019-03-20T18:00:36.564Z,350.37
2019-03-20T18:03:06.491Z,209.10
2019-03-20T18:05:35.912Z,254.20
2019-03-20T18:08:05.887Z,266.90
2019-03-20T18:10:35.811Z,227.90
2019-03-20T18:13:05.642Z,216.47
2019-03-20T18:15:35.173Z,323.63
2019-03-20T18:18:04.828Z,416.67
2019-03-20T18:20:34.277Z,307.50
2019-03-20T18:26:35.321Z,361.10
2019-03-20T18:29:29.331Z,265.60
2019-03-20T18:31:58.667Z,399.37
2019-03-20T18:34:28.035Z,321.30
2019-03-20T18:36:59.290Z,368.40
2019-03-20T18:39:28.295Z,343.57
2019-03-20T18:41:58.147Z,234.70
2019-03-20T18:44:27.458Z,216.43
2019-03-20T18:46:56.698Z,194.97
2019-03-20T18:49:26.068Z,187.77
2019-03-20T18:51:55.407Z,250.60
2019-03-20T18:54:24.740Z,342.50
2019-03-20T18:56:54.481Z,730.63
2019-03-20T18:59:23.860Z,437.53
2019-03-20T19:01:53.159Z,376.67
2019-03-20T19:04:22.494Z,354.17
2019-03-20T19:06:51.758Z,363.90
2019-03-20T19:09:21.110Z,564.97
2019-03-20T19:11:50.457Z,311.90
2019-03-20T19:14:20.405Z,502.07
2019-03-20T19:16:49.738Z,546.47
2019-03-20T19:19:18.985Z,257.73
2019-03-20T19:21:48.321Z,188.80
2019-03-20T19:24:17.577Z,189.23
2019-03-20T19:26:46.768Z,160.10
2019-03-20T19:29:16.109Z,177.10
2019-03-20T19:31:45.431Z,159.33
2019-03-20T19:34:14.682Z,124.07
2019-03-20T19:36:43.952Z,185.47
2019-03-20T19:39:13.294Z,156.40
2019-03-20T19:41:42.619Z,870.30
2019-03-20T19:44:14.450Z,723.23
2019-03-20T19:46:43.788Z,308.77
2019-03-20T19:49:13.051Z,191.53
2019-03-20T19:51:42.424Z,274.57
2019-03-20T19:54:12.067Z,232.13
2019-03-20T19:56:41.393Z,222.73
2019-03-20T19:59:10.750Z,251.73
2019-03-20T20:01:39.994Z,184.27
2019-03-20T20:04:09.310Z,154.13
2019-03-20T20:06:38.574Z,142.30
2019-03-20T20:09:08.481Z,289.77
2019-03-20T20:11:38.268Z,743.93
2019-03-20T20:14:07.722Z,419.67
2019-03-20T20:16:37.028Z,333.87
2019-03-20T20:19:06.375Z,199.70
2019-03-20T20:21:35.715Z,283.33
2019-03-20T20:24:05.957Z,326.63
2019-03-20T20:26:35.292Z,273.93
2019-03-20T20:29:04.618Z,244.07
2019-03-20T20:31:33.947Z,256.67
2019-03-20T20:34:03.312Z,202.93
2019-03-20T20:36:34.195Z,194.70
2019-03-20T20:39:03.659Z,218.67
2019-03-20T20:41:33.017Z,270.60
2019-03-20T20:44:02.423Z,289.33
2019-03-20T20:46:31.747Z,122.00
2019-03-20T20:49:01.107Z,86.17
2019-03-20T20:51:30.867Z,74.70
2019-03-20T20:54:00.152Z,88.47
2019-03-20T20:56:29.509Z,79.20
2019-03-20T20:58:58.851Z,87.67
2019-03-20T21:01:30.108Z,134.57
2019-03-20T21:03:59.203Z,175.00
2019-03-20T21:06:28.524Z,120.50
2019-03-20T21:08:57.822Z,152.73
2019-03-20T21:11:27.165Z,146.23
2019-03-20T21:13:56.933Z,139.83
2019-03-20T21:16:26.746Z,141.63
2019-03-20T21:19:33.233Z,120.20
2019-03-20T21:22:44.828Z,117.23
2019-03-20T21:25:19.321Z,261.20
2019-03-20T21:28:29.380Z,124.50
2019-03-20T21:31:04.594Z,92.23
2019-03-20T21:34:27.096Z,107.03
2019-03-20T21:37:25.871Z,66.13
2019-03-20T21:39:56.388Z,61.10
2019-03-20T21:43:07.360Z,66.30
2019-03-20T21:46:18.010Z,82.43
2019-03-20T21:48:47.796Z,61.57
2019-03-20T21:51:19.341Z,69.57
2019-03-20T21:54:34.473Z,78.63
2019-03-20T21:57:31.344Z,56.57
2019-03-20T22:00:50.415Z,42.53
2019-03-20T22:03:20.349Z,52.07
2019-03-20T22:06:32.393Z,39.83
2019-03-20T22:09:08.400Z,34.20
2019-03-20T22:12:12.674Z,37.67
2019-03-20T22:14:44.051Z,43.17
2019-03-20T22:18:12.597Z,56.80
2019-03-20T22:21:01.982Z,42.37
2019-03-20T22:24:15.381Z,42.03
2019-03-20T22:27:31.603Z,37.07
2019-03-20T22:30:01.470Z,41.30
2019-03-20T22:33:00.990Z,63.33
2019-03-20T22:35:49.359Z,53.30
2019-03-20T22:38:46.672Z,48.87
2019-03-20T22:41:50.890Z,44.83
2019-03-20T22:44:22.045Z,30.33
2019-03-20T22:47:34.618Z,39.20
2019-03-20T22:50:40.846Z,33.80
2019-03-20T22:53:46.040Z,28.13
2019-03-20T22:57:08.329Z,35.17
2019-03-20T22:59:38.173Z,25.47
2019-03-20T23:02:38.959Z,31.43
2019-03-20T23:05:09.835Z,29.83
2019-03-20T23:07:39.782Z,33.90
2019-03-20T23:10:12.335Z,34.73
2019-03-20T23:12:42.161Z,20.37
2019-03-20T23:15:14.581Z,21.60
2019-03-20T23:17:44.431Z,23.13
2019-03-20T23:20:16.621Z,23.97
2019-03-20T23:22:48.436Z,21.97
2019-03-20T23:25:18.294Z,24.60
2019-03-20T23:27:48.123Z,22.10
2019-03-20T23:30:21.088Z,24.07
2019-03-20T23:32:50.943Z,21.30
2019-03-20T23:35:20.742Z,24.50
2019-03-20T23:37:50.638Z,23.30
2019-03-20T23:40:20.838Z,20.70
2019-03-20T23:42:50.634Z,20.20
2019-03-20T23:45:20.488Z,25.57
2019-03-20T23:47:59.968Z,25.43
2019-03-20T23:50:29.757Z,26.20
2019-03-20T23:52:59.551Z,30.73
2019-03-20T23:55:29.370Z,22.93
2019-03-20T23:57:59.735Z,24.13
